Time;durP1;ratioP1;P1;durP2;ratioP2;P2;SDS_P1;SDS_P2;PMS_P1;PMS_P2;Temp;Humidity;BMP_temperature;BMP_pressure;BME280_temperature;BME280_humidity;BME280_pressure;Samples;Min_cycle;Max_cycle;Signal;HPM_P1;HPM_P2
2023/11/07 00:03:27;;;;;;;8.00;2.70;;;;;;;10.19;96.83;99575.02;179834;1251;57919;-82
2023/11/07 00:07:32;;;;;;;4.30;2.00;;;;;;;10.14;97.06;99581.49;179736;1256;45990;-80
2023/11/07 00:11:36;;;;;;;5.90;3.40;;;;;;;10.08;97.18;99588.55;179728;1252;46043;-82
2023/11/07 00:15:39;;;;;;;5.30;3.30;;;;;;;10.07;97.41;99592.95;180705;1251;46203;-81
2023/11/07 00:19:42;;;;;;;5.70;2.50;;;;;;;10.04;97.73;99602.79;179938;1254;46098;-81
2023/11/07 00:23:45;;;;;;;4.80;3.20;;;;;;;9.97;98.43;99603.59;180212;1251;58202;-82
2023/11/07 00:27:48;;;;;;;4.50;2.10;;;;;;;9.94;99.10;99613.44;179755;1253;44403;-81
2023/11/07 00:31:52;;;;;;;10.10;3.40;;;;;;;9.94;99.92;99613.21;179379;1251;44000;-81
2023/11/07 00:35:55;;;;;;;4.40;2.00;;;;;;;10.01;100.00;99608.20;178990;1251;45980;-82
2023/11/07 00:39:58;;;;;;;5.20;2.80;;;;;;;10.08;100.00;99614.14;179303;1251;45860;-81
2023/11/07 00:44:01;;;;;;;3.00;1.70;;;;;;;10.17;99.95;99613.53;180059;1251;58213;-80
2023/11/07 00:48:04;;;;;;;4.40;2.20;;;;;;;10.24;99.86;99617.26;179001;1251;46095;-81
2023/11/07 00:52:08;;;;;;;2.80;1.90;;;;;;;10.35;99.76;99628.69;178844;1251;46104;-80
2023/11/07 00:56:11;;;;;;;3.10;2.30;;;;;;;10.42;99.34;99630.33;178955;1251;46021;-80
2023/11/07 01:00:15;;;;;;;2.80;1.60;;;;;;;10.52;99.19;99637.45;180474;1251;44373;-79
2023/11/07 01:04:18;;;;;;;2.50;1.60;;;;;;;10.59;98.62;99636.63;177701;1251;59316;-81
2023/11/07 01:08:22;;;;;;;2.70;1.80;;;;;;;10.69;98.27;99636.98;179746;1251;45996;-80
2023/11/07 01:12:25;;;;;;;5.30;2.00;;;;;;;10.75;98.02;99643.05;178525;1251;46085;-79
2023/11/07 01:16:28;;;;;;;4.50;3.50;;;;;;;10.77;97.72;99647.91;178416;1254;46137;-80
2023/11/07 01:20:35;;;;;;;1.90;1.50;;;;;;;10.77;97.59;99655.92;178836;1255;45964;-81
2023/11/07 01:24:38;;;;;;;3.20;1.60;;;;;;;10.78;98.39;99662.02;179652;1255;58216;-80
2023/11/07 01:28:42;;;;;;;2.50;1.40;;;;;;;10.84;98.85;99668.43;179003;1251;46053;-80
2023/11/07 01:32:45;;;;;;;1.80;1.10;;;;;;;10.94;99.40;99674.79;179473;1251;45960;-81
2023/11/07 01:36:48;;;;;;;3.00;1.10;;;;;;;11.06;99.30;99675.11;178666;1251;46156;-80
2023/11/07 01:40:51;;;;;;;1.50;1.30;;;;;;;11.11;98.68;99674.05;179531;1255;46104;-80
2023/11/07 01:44:54;;;;;;;11.80;1.50;;;;;;;11.12;97.87;99677.73;180076;1251;58842;-81
2023/11/07 01:48:58;;;;;;;4.20;1.90;;;;;;;11.10;97.44;99682.91;179770;1251;45983;-79
2023/11/07 01:53:02;;;;;;;3.90;2.30;;;;;;;10.99;96.90;99692.21;180058;1251;44183;-81
2023/11/07 01:57:05;;;;;;;1.60;1.40;;;;;;;10.92;96.64;99695.33;180851;1255;46121;-81
2023/11/07 02:01:08;;;;;;;2.00;1.70;;;;;;;10.89;96.86;99699.17;178685;1252;55861;-81
2023/11/07 02:05:11;;;;;;;2.90;1.80;;;;;;;10.92;97.62;99709.67;178353;1251;59302;-81
2023/11/07 02:09:14;;;;;;;3.30;1.70;;;;;;;10.95;97.56;99718.68;179990;1252;46108;-82
2023/11/07 02:13:17;;;;;;;2.50;1.50;;;;;;;10.99;97.25;99720.74;179424;1251;46082;-82
2023/11/07 02:17:20;;;;;;;2.90;1.90;;;;;;;11.03;97.14;99716.95;180206;1250;45989;-80
2023/11/07 02:21:24;;;;;;;3.40;2.40;;;;;;;11.02;96.54;99715.34;180373;1251;46101;-81
2023/11/07 02:25:27;;;;;;;3.30;2.40;;;;;;;10.97;95.91;99716.36;179858;1254;58190;-81
2023/11/07 02:29:30;;;;;;;2.70;2.10;;;;;;;10.89;95.82;99716.90;180351;1251;46102;-81
2023/11/07 02:33:33;;;;;;;7.00;2.10;;;;;;;10.85;95.95;99716.34;179319;1251;44723;-81
2023/11/07 02:37:40;;;;;;;3.60;2.70;;;;;;;10.78;95.94;99720.08;181302;1251;45967;-82
2023/11/07 02:41:44;;;;;;;5.90;2.00;;;;;;;10.69;96.34;99725.26;180559;1253;45993;-81
2023/11/07 02:45:48;;;;;;;4.40;2.50;;;;;;;10.67;96.59;99726.55;180661;1250;59763;-80
2023/11/07 02:49:51;;;;;;;3.60;1.70;;;;;;;10.64;97.04;99731.23;179029;1251;48538;-79
2023/11/07 02:53:54;;;;;;;4.30;2.00;;;;;;;10.63;97.28;99732.75;179569;1251;46210;-79
2023/11/07 02:57:57;;;;;;;3.20;1.40;;;;;;;10.65;97.35;99731.90;180019;1251;46099;-82
2023/11/07 03:02:01;;;;;;;1.50;1.20;;;;;;;10.65;97.48;99726.58;179883;1250;44110;-81
2023/11/07 03:06:04;;;;;;;2.20;1.50;;;;;;;10.62;97.71;99725.55;179722;1251;57917;-81
2023/11/07 03:10:09;;;;;;;1.50;1.40;;;;;;;10.63;97.75;99729.05;179673;1251;46101;-81
2023/11/07 03:14:12;;;;;;;1.50;1.00;;;;;;;10.59;97.47;99733.65;179735;1254;46050;-81
2023/11/07 03:18:15;;;;;;;2.90;1.60;;;;;;;10.55;97.41;99735.80;180207;1251;46448;-81
2023/11/07 03:22:20;;;;;;;1.10;1.00;;;;;;;10.50;97.32;99734.93;179624;1253;45980;-82
2023/11/07 03:26:24;;;;;;;4.40;1.50;;;;;;;10.44;97.21;99740.85;180823;1251;59190;-82
2023/11/07 03:30:27;;;;;;;2.60;1.40;;;;;;;10.40;97.13;99749.32;180745;1250;45992;-82
2023/11/07 03:34:30;;;;;;;1.50;1.40;;;;;;;10.35;96.96;99750.45;179571;1250;44308;-81
2023/11/07 03:38:34;;;;;;;4.30;1.50;;;;;;;10.28;96.99;99755.84;179554;1250;44518;-80
2023/11/07 03:42:37;;;;;;;1.90;1.30;;;;;;;10.22;97.09;99763.30;179571;1254;45714;-82
2023/11/07 03:46:41;;;;;;;1.30;1.20;;;;;;;10.16;97.34;99762.41;181095;1250;57736;-81
2023/11/07 03:50:44;;;;;;;6.00;2.60;;;;;;;10.12;97.61;99766.83;181120;1253;43846;-80
2023/11/07 03:54:47;;;;;;;6.40;2.40;;;;;;;10.09;97.58;99770.31;180764;1251;44090;-81
2023/11/07 03:58:51;;;;;;;2.50;1.70;;;;;;;10.04;97.59;99768.59;180564;1254;53342;-81
2023/11/07 04:02:54;;;;;;;4.50;2.10;;;;;;;9.90;98.49;99768.55;181029;1251;45958;-81
2023/11/07 04:06:58;;;;;;;2.60;1.90;;;;;;;9.79;99.35;99769.65;180788;1254;60134;-82
2023/11/07 04:11:01;;;;;;;2.20;1.80;;;;;;;9.74;99.94;99764.60;180463;1251;44375;-80
2023/11/07 04:15:08;;;;;;;1.80;1.30;;;;;;;9.75;100.00;99760.69;180802;1253;44030;-83
2023/11/07 04:19:12;;;;;;;1.60;1.50;;;;;;;9.74;100.00;99758.64;180751;1250;48652;-82
2023/11/07 04:23:16;;;;;;;1.80;1.20;;;;;;;9.75;100.00;99756.58;180119;1253;45964;-84
2023/11/07 04:27:20;;;;;;;1.20;1.00;;;;;;;9.76;100.00;99755.63;178567;1251;58726;-84
2023/11/07 04:31:23;;;;;;;4.60;2.10;;;;;;;9.77;99.90;99760.11;179749;1251;45264;-84
2023/11/07 04:35:26;;;;;;;0.80;0.80;;;;;;;9.75;99.21;99764.72;179359;1251;46092;-83
2023/11/07 04:39:29;;;;;;;3.00;1.20;;;;;;;9.69;98.73;99767.35;180088;1253;46261;-83
2023/11/07 04:43:35;;;;;;;3.70;1.30;;;;;;;9.63;98.65;99767.34;179965;1251;46434;-84
2023/11/07 04:47:39;;;;;;;1.40;1.30;;;;;;;9.58;98.66;99772.75;181036;1254;60111;-82
2023/11/07 04:51:43;;;;;;;3.10;1.20;;;;;;;9.57;98.92;99776.02;180453;1250;46081;-84
2023/11/07 04:55:46;;;;;;;1.50;1.40;;;;;;;9.56;98.94;99775.87;180084;1255;46088;-83
2023/11/07 04:59:50;;;;;;;3.50;1.10;;;;;;;9.56;98.76;99777.60;179462;1251;46045;-84
2023/11/07 05:03:54;;;;;;;2.00;1.40;;;;;;;9.53;98.44;99780.58;179798;1254;46006;-85
2023/11/07 05:07:58;;;;;;;1.50;0.60;;;;;;;9.49;98.32;99789.04;179989;1252;60316;-85
2023/11/07 05:12:03;;;;;;;1.30;1.10;;;;;;;9.48;98.14;99792.11;179339;1251;44545;-86
2023/11/07 05:16:07;;;;;;;1.60;1.20;;;;;;;9.45;98.04;99792.95;179493;1251;46008;-85
2023/11/07 05:20:13;;;;;;;2.50;0.90;;;;;;;9.35;99.04;99791.48;179015;1251;46123;-84
2023/11/07 05:24:17;;;;;;;1.10;1.00;;;;;;;9.29;99.97;99793.40;180033;1251;45992;-84
2023/11/07 05:28:20;;;;;;;1.10;1.00;;;;;;;9.26;100.00;99795.42;180501;1251;57875;-85
2023/11/07 05:32:24;;;;;;;2.30;0.80;;;;;;;9.28;100.00;99799.26;179717;1251;45082;-85
2023/11/07 05:36:27;;;;;;;1.00;0.60;;;;;;;9.28;100.00;99806.86;178812;1251;46008;-87
2023/11/07 05:40:31;;;;;;;1.80;1.30;;;;;;;9.31;100.00;99813.02;179210;1251;45980;-84
2023/11/07 05:44:35;;;;;;;2.40;2.20;;;;;;;9.36;100.00;99820.45;179283;1251;45958;-85
2023/11/07 05:48:38;;;;;;;2.70;1.10;;;;;;;9.41;100.00;99817.84;178955;1251;59609;-85
2023/11/07 05:52:41;;;;;;;3.20;0.80;;;;;;;9.49;100.00;99821.75;179157;1251;46154;-85
2023/11/07 05:56:45;;;;;;;1.30;1.20;;;;;;;9.58;100.00;99827.00;179476;1251;45878;-84
2023/11/07 06:00:48;;;;;;;3.20;1.10;;;;;;;9.65;100.00;99831.12;179229;1251;45957;-85
2023/11/07 06:04:53;;;;;;;1.70;0.50;;;;;;;9.68;100.00;99840.73;180344;1251;45970;-83
2023/11/07 06:08:56;;;;;;;0.90;0.80;;;;;;;9.64;100.00;99840.36;179764;1251;58491;-85
2023/11/07 06:12:59;;;;;;;2.40;1.00;;;;;;;9.60;100.00;99843.55;179226;1254;46015;-86
2023/11/07 06:17:03;;;;;;;0.90;0.90;;;;;;;9.55;100.00;99848.87;179378;1251;46067;-85
2023/11/07 06:21:06;;;;;;;1.30;1.20;;;;;;;9.55;100.00;99853.61;179949;1250;46057;-86
2023/11/07 06:25:12;;;;;;;0.90;0.90;;;;;;;9.54;99.95;99857.64;179372;1251;243378;-85
2023/11/07 06:29:16;;;;;;;5.00;3.00;;;;;;;9.56;99.97;99860.66;179428;1251;59993;-86
2023/11/07 06:33:19;;;;;;;11.80;7.30;;;;;;;9.43;100.00;99865.30;180273;1251;44744;-85
2023/11/07 06:37:23;;;;;;;15.60;10.80;;;;;;;9.27;100.00;99868.98;179771;1251;46216;-85
2023/11/07 06:41:28;;;;;;;16.40;12.50;;;;;;;9.13;100.00;99870.24;180022;1256;46069;-85
2023/11/07 06:45:31;;;;;;;15.70;8.90;;;;;;;9.01;100.00;99876.55;179830;1251;46012;-85
2023/11/07 06:49:34;;;;;;;9.30;6.70;;;;;;;8.88;100.00;99880.63;179646;1251;57409;-85
2023/11/07 06:53:38;;;;;;;14.50;6.70;;;;;;;8.77;100.00;99886.23;179368;1251;46527;-86
2023/11/07 06:57:42;;;;;;;11.20;6.80;;;;;;;8.77;100.00;99892.98;178604;1251;46015;-86
2023/11/07 07:01:49;;;;;;;9.10;3.60;;;;;;;8.81;100.00;99896.50;179222;1254;46092;-85
2023/11/07 07:05:52;;;;;;;12.40;5.50;;;;;;;8.94;100.00;99900.98;179135;1254;46108;-85
2023/11/07 07:09:58;;;;;;;7.00;4.50;;;;;;;9.04;100.00;99904.45;179382;1251;59033;-85
2023/11/07 07:14:02;;;;;;;4.00;3.40;;;;;;;9.14;100.00;99905.16;179910;1251;44220;-86
2023/11/07 07:18:06;;;;;;;7.00;3.40;;;;;;;9.28;100.00;99906.17;179595;1251;45979;-86
2023/11/07 07:22:09;;;;;;;4.30;2.80;;;;;;;9.39;100.00;99909.70;179331;1251;46123;-85
2023/11/07 07:26:14;;;;;;;2.90;1.40;;;;;;;9.57;100.00;99915.98;179360;1254;45993;-86
2023/11/07 07:30:20;;;;;;;3.90;2.90;;;;;;;9.82;100.00;99916.91;179482;1251;58465;-86
2023/11/07 07:34:26;;;;;;;2.90;1.90;;;;;;;10.12;100.00;99914.39;178895;1251;46015;-87
2023/11/07 07:38:30;;;;;;;3.20;1.30;;;;;;;10.41;100.00;99917.95;179620;1254;45786;-86
2023/11/07 07:42:35;;;;;;;12.40;2.30;;;;;;;10.69;100.00;99918.73;178497;1251;46082;-86
2023/11/07 07:46:42;;;;;;;1.80;1.50;;;;;;;10.91;100.00;99919.84;179043;1251;46024;-86
2023/11/07 07:50:46;;;;;;;3.60;1.20;;;;;;;11.14;100.00;99920.14;178923;1251;60906;-85
2023/11/07 07:54:50;;;;;;;2.40;1.70;;;;;;;11.31;99.90;99918.21;179055;1251;46014;-85
2023/11/07 07:59:13;;;;;;;2.40;1.30;;;;;;;11.50;99.77;99914.77;178945;1251;46521;-87
2023/11/07 08:03:16;;;;;;;2.10;0.90;;;;;;;11.67;99.81;99916.09;179567;1250;46687;-86
2023/11/07 08:07:24;;;;;;;2.50;1.10;;;;;;;11.83;99.66;99919.53;179020;1251;45916;-84
2023/11/07 08:11:29;;;;;;;1.00;0.80;;;;;;;11.93;97.08;99923.39;180059;1250;58227;-85
2023/11/07 08:15:35;;;;;;;2.40;0.90;;;;;;;12.07;96.54;99926.42;179285;1251;44682;-86
2023/11/07 08:19:39;;;;;;;1.30;1.20;;;;;;;12.21;97.18;99928.68;179426;1254;46085;-86
2023/11/07 08:23:42;;;;;;;1.30;1.00;;;;;;;12.32;94.69;99931.00;179206;1249;45983;-85
2023/11/07 08:27:45;;;;;;;3.50;1.60;;;;;;;12.45;94.70;99933.73;178945;1251;45964;-86
2023/11/07 08:31:48;;;;;;;1.60;1.00;;;;;;;12.58;94.65;99931.04;179083;1253;59195;-85
2023/11/07 08:35:52;;;;;;;3.20;1.20;;;;;;;12.72;95.05;99935.26;179669;1251;45983;-86
2023/11/07 08:39:55;;;;;;;3.50;1.80;;;;;;;12.86;94.87;99939.60;180364;1251;44228;-86
2023/11/07 08:43:58;;;;;;;4.30;1.80;;;;;;;12.98;94.12;99937.39;179512;1250;44699;-86
2023/11/07 08:48:02;;;;;;;1.90;1.30;;;;;;;13.12;95.30;99938.71;179475;1250;46015;-86
2023/11/07 08:52:06;;;;;;;1.30;1.10;;;;;;;13.26;94.28;99936.25;179398;1250;58941;-87
2023/11/07 08:56:12;;;;;;;1.80;0.80;;;;;;;13.36;91.81;99936.48;179513;1250;46082;-86
2023/11/07 09:00:22;;;;;;;1.40;1.30;;;;;;;13.45;89.26;99935.14;179537;1250;45980;-85
2023/11/07 09:04:26;;;;;;;3.00;1.30;;;;;;;13.57;88.36;99936.12;178990;1254;46190;-86
2023/11/07 09:08:30;;;;;;;0.60;0.60;;;;;;;13.60;84.78;99940.92;179670;1250;45918;-86
2023/11/07 09:12:33;;;;;;;1.20;0.70;;;;;;;13.67;85.71;99945.23;179555;1251;57994;-86
2023/11/07 09:16:37;;;;;;;1.20;0.80;;;;;;;13.73;83.47;99945.36;178932;1251;46043;-86
2023/11/07 09:20:42;;;;;;;1.70;1.00;;;;;;;13.80;83.60;99945.33;179954;1251;44632;-85
2023/11/07 09:24:47;;;;;;;3.00;2.20;;;;;;;13.91;83.17;99944.08;179327;1251;46203;-87
2023/11/07 09:28:50;;;;;;;2.40;1.50;;;;;;;13.95;80.45;99943.23;180788;1251;45035;-86
2023/11/07 09:32:55;;;;;;;4.30;1.60;;;;;;;13.96;80.42;99943.07;179985;1251;59551;-87
2023/11/07 09:36:58;;;;;;;2.60;1.20;;;;;;;13.94;79.18;99942.19;179411;1251;46081;-86
2023/11/07 09:41:03;;;;;;;2.10;1.10;;;;;;;13.93;78.76;99940.16;179407;1256;46188;-86
2023/11/07 09:45:14;;;;;;;3.70;1.40;;;;;;;13.89;78.28;99940.20;179236;1253;46091;-86
2023/11/07 09:49:19;;;;;;;2.30;0.90;;;;;;;13.80;79.71;99947.85;179794;1251;46020;-86
2023/11/07 09:53:23;;;;;;;2.30;0.90;;;;;;;13.73;79.00;99951.05;179604;1251;60024;-86
2023/11/07 09:57:28;;;;;;;0.80;0.80;;;;;;;13.63;78.62;99952.77;179438;1251;46492;-86
2023/11/07 10:01:33;;;;;;;1.20;0.70;;;;;;;13.57;78.12;99947.45;179236;1251;46006;-85
2023/11/07 10:05:38;;;;;;;1.40;0.80;;;;;;;13.49;77.42;99947.17;179312;1251;45703;-86
2023/11/07 10:09:42;;;;;;;1.50;1.10;;;;;;;13.64;78.34;99943.77;179277;1251;45983;-85
2023/11/07 10:14:00;;;;;;;0.90;0.80;;;;;;;13.85;77.63;99938.31;179186;1251;59472;-86
2023/11/07 10:18:10;;;;;;;1.50;0.70;;;;;;;14.10;76.49;99936.29;179832;1251;46476;-85
2023/11/07 10:22:14;;;;;;;0.60;0.60;;;;;;;14.26;75.45;99934.30;179217;1251;46067;-86
2023/11/07 10:26:17;;;;;;;1.00;0.90;;;;;;;14.44;76.06;99932.31;179543;1251;46074;-85
2023/11/07 10:30:21;;;;;;;2.10;1.00;;;;;;;14.57;73.59;99932.24;179365;1251;46092;-86
2023/11/07 10:34:25;;;;;;;2.30;1.10;;;;;;;14.72;74.22;99930.70;179372;1251;59309;-86
2023/11/07 10:38:29;;;;;;;3.40;2.20;;;;;;;14.92;76.18;99934.80;178937;1253;46000;-85
2023/11/07 10:42:34;;;;;;;1.20;0.90;;;;;;;14.99;73.01;99929.97;179487;1252;44546;-86
2023/11/07 10:46:38;;;;;;;1.30;0.70;;;;;;;15.03;71.21;99920.34;179503;1251;45289;-86
2023/11/07 10:50:43;;;;;;;3.80;1.10;;;;;;;15.08;70.93;99917.64;179167;1251;46041;-85
2023/11/07 10:54:46;;;;;;;2.10;1.30;;;;;;;15.11;71.88;99916.01;179177;1252;59232;-86
2023/11/07 10:58:56;;;;;;;3.10;1.10;;;;;;;15.09;69.45;99911.59;178981;1251;45993;-85
2023/11/07 11:03:04;;;;;;;1.90;0.70;;;;;;;15.09;69.75;99908.73;179826;1251;45951;-85
2023/11/07 11:07:10;;;;;;;3.40;1.10;;;;;;;15.10;70.58;99903.55;179546;1250;46098;-85
2023/11/07 11:11:14;;;;;;;4.10;1.40;;;;;;;15.12;69.48;99899.04;179742;1250;46088;-85
2023/11/07 11:15:18;;;;;;;1.40;0.50;;;;;;;15.04;67.84;99899.15;179435;1250;56919;-84
2023/11/07 11:19:34;;;;;;;0.70;0.40;;;;;;;14.96;67.67;99899.64;178861;1251;45910;-87
2023/11/07 11:23:54;;;;;;;2.60;0.80;;;;;;;14.86;68.12;99895.49;178992;1250;46133;-85
2023/11/07 11:28:04;;;;;;;2.00;0.70;;;;;;;14.78;67.57;99890.41;178977;1254;45974;-85
2023/11/07 11:32:28;;;;;;;2.90;1.50;;;;;;;14.75;69.00;99887.61;180129;1250;45970;-86
2023/11/07 11:36:37;;;;;;;1.80;1.30;;;;;;;14.76;70.42;99887.84;179466;1250;59972;-85
2023/11/07 11:40:59;;;;;;;0.80;0.50;;;;;;;14.76;70.17;99888.59;179104;1251;45907;-85
2023/11/07 11:45:26;;;;;;;1.10;1.00;;;;;;;14.76;71.68;99890.17;179167;1250;46118;-85
2023/11/07 11:50:19;;;;;;;1.70;0.60;;;;;;;14.66;68.90;99887.21;179190;1250;45980;-85
2023/11/07 11:54:22;;;;;;;0.90;0.80;;;;;;;14.62;70.79;99886.79;178334;1259;46005;-85
2023/11/07 11:58:31;;;;;;;0.80;0.40;;;;;;;14.56;70.51;99886.30;177799;1259;60140;-85
2023/11/07 12:02:39;;;;;;;0.80;0.80;;;;;;;14.51;70.04;99883.92;178227;1259;46123;-85
2023/11/07 12:07:14;;;;;;;0.50;0.30;;;;;;;14.51;69.91;99883.27;178510;1259;45092;-84
2023/11/07 12:11:18;;;;;;;0.90;0.60;;;;;;;14.48;71.31;99886.17;178029;1259;45948;-85
2023/11/07 12:15:26;;;;;;;1.30;0.70;;;;;;;14.52;71.00;99883.86;178018;1259;45977;-84
2023/11/07 12:19:30;;;;;;;1.00;0.70;;;;;;;14.49;69.94;99882.90;178277;1259;58025;-85
2023/11/07 12:23:34;;;;;;;15.40;1.40;;;;;;;14.47;70.03;99887.54;179398;1258;45825;-86
2023/11/07 12:27:38;;;;;;;2.40;0.70;;;;;;;14.48;69.00;99879.45;178019;1258;46041;-85
2023/11/07 12:31:41;;;;;;;2.00;1.10;;;;;;;14.51;69.48;99874.45;179299;1250;46104;-84
2023/11/07 12:35:45;;;;;;;0.60;0.50;;;;;;;14.52;71.25;99882.07;179329;1250;46105;-85
2023/11/07 12:39:51;;;;;;;0.80;0.60;;;;;;;14.47;70.98;99879.38;179602;1250;59229;-86
2023/11/07 12:43:54;;;;;;;0.90;0.60;;;;;;;14.46;72.85;99884.49;178642;1250;46032;-85
2023/11/07 12:47:59;;;;;;;1.30;0.80;;;;;;;14.47;72.87;99883.27;179216;1251;46156;-86
2023/11/07 12:52:12;;;;;;;0.70;0.50;;;;;;;14.53;72.92;99884.48;179157;1251;45904;-86
2023/11/07 12:56:18;;;;;;;1.40;0.60;;;;;;;14.46;71.07;99878.70;179499;1250;51236;-86
2023/11/07 13:00:26;;;;;;;4.70;1.50;;;;;;;14.37;72.02;99877.54;180106;1250;57929;-85
2023/11/07 13:04:29;;;;;;;2.90;1.40;;;;;;;14.28;74.28;99880.98;180110;1251;44133;-86
2023/11/07 13:08:35;;;;;;;6.30;1.40;;;;;;;14.17;75.16;99875.67;179486;1250;45984;-84
2023/11/07 13:12:38;;;;;;;2.10;0.70;;;;;;;14.11;75.64;99877.91;179234;1250;44551;-85
2023/11/07 13:16:44;;;;;;;4.30;2.40;;;;;;;14.00;75.84;99878.14;179456;1250;45970;-83
2023/11/07 13:20:48;;;;;;;6.00;3.00;;;;;;;13.83;75.84;99881.49;178954;1250;59204;-86
2023/11/07 13:24:51;;;;;;;1.00;0.80;;;;;;;13.72;75.79;99878.27;179823;1250;46092;-85
2023/11/07 13:28:55;;;;;;;1.90;0.80;;;;;;;13.67;74.53;99874.84;179130;1250;44071;-86
2023/11/07 13:32:58;;;;;;;1.20;1.10;;;;;;;13.69;75.08;99873.05;179505;1251;46222;-85
2023/11/07 13:37:01;;;;;;;1.00;0.70;;;;;;;13.75;75.50;99869.48;179185;1251;47774;-86
2023/11/07 13:41:04;;;;;;;3.30;1.90;;;;;;;13.81;76.48;99866.27;179691;1250;59563;-83
2023/11/07 13:45:09;;;;;;;2.50;1.10;;;;;;;13.92;77.58;99865.70;179250;1251;46453;-83
2023/11/07 13:49:13;;;;;;;2.90;2.10;;;;;;;14.04;78.46;99865.05;178587;1251;44445;-86
2023/11/07 13:53:17;;;;;;;1.10;0.90;;;;;;;14.13;79.15;99860.77;178589;1251;46091;-86
2023/11/07 13:57:21;;;;;;;2.00;1.30;;;;;;;14.22;79.32;99859.52;179341;1250;46040;-86
2023/11/07 14:01:27;;;;;;;3.00;1.60;;;;;;;14.29;79.14;99858.61;179337;1250;57892;-86
2023/11/07 14:05:30;;;;;;;3.50;2.40;;;;;;;14.29;78.16;99862.31;178960;1251;45950;-85
2023/11/07 14:09:34;;;;;;;3.10;2.80;;;;;;;14.23;76.64;99862.23;179224;1251;46232;-86
2023/11/07 14:13:39;;;;;;;15.80;10.60;;;;;;;14.19;76.86;99859.10;179511;1251;44745;-86
2023/11/07 14:17:44;;;;;;;16.40;10.40;;;;;;;14.11;76.19;99857.63;179433;1250;45952;-86
2023/11/07 14:21:49;;;;;;;5.80;4.30;;;;;;;14.03;76.53;99861.80;179099;1254;59537;-86
2023/11/07 14:25:53;;;;;;;6.70;4.20;;;;;;;13.95;76.85;99863.65;179883;1251;46312;-87
2023/11/07 14:29:56;;;;;;;7.80;2.20;;;;;;;13.89;77.56;99861.23;179664;1249;46095;-85
2023/11/07 14:34:04;;;;;;;3.30;1.40;;;;;;;13.77;78.21;99858.70;180421;1250;44882;-86
2023/11/07 14:38:09;;;;;;;2.80;1.30;;;;;;;13.71;79.22;99855.25;178526;1251;45948;-86
2023/11/07 14:42:16;;;;;;;3.80;1.40;;;;;;;13.65;80.11;99860.42;178966;1250;59336;-84
2023/11/07 14:46:19;;;;;;;4.20;1.40;;;;;;;13.62;80.73;99860.27;179509;1250;46099;-84
2023/11/07 14:50:23;;;;;;;2.60;1.30;;;;;;;13.59;81.16;99863.03;179483;1251;45993;-83
2023/11/07 14:54:26;;;;;;;2.00;1.80;;;;;;;13.52;80.86;99865.00;180166;1250;45980;-84
2023/11/07 14:58:29;;;;;;;2.40;1.40;;;;;;;13.48;81.23;99864.71;179997;1251;46108;-83
2023/11/07 15:02:34;;;;;;;5.30;4.80;;;;;;;13.43;81.90;99863.38;179703;1249;59228;-83
2023/11/07 15:06:37;;;;;;;10.20;8.50;;;;;;;13.33;82.05;99863.86;179519;1253;46041;-81
2023/11/07 15:10:40;;;;;;;10.90;9.80;;;;;;;13.29;82.89;99862.26;180371;1251;46099;-84
2023/11/07 15:14:45;;;;;;;9.10;8.00;;;;;;;13.22;83.58;99861.49;179650;1251;46064;-84
2023/11/07 15:18:48;;;;;;;12.50;9.80;;;;;;;13.17;83.24;99858.60;180205;1251;44008;-84
2023/11/07 15:22:52;;;;;;;22.60;14.30;;;;;;;13.15;82.88;99862.86;180719;1253;59500;-82
2023/11/07 15:26:55;;;;;;;15.50;10.20;;;;;;;13.12;83.17;99858.56;179751;1251;46027;-78
2023/11/07 15:31:00;;;;;;;42.10;23.90;;;;;;;13.04;82.76;99854.26;181340;1251;43961;-79
2023/11/07 15:35:10;;;;;;;71.70;41.10;;;;;;;12.97;82.37;99853.45;181494;1251;45963;-82
2023/11/07 15:39:14;;;;;;;40.20;23.20;;;;;;;12.93;81.86;99854.75;180351;1251;44323;-83
2023/11/07 15:43:17;;;;;;;27.10;15.90;;;;;;;12.91;81.90;99856.89;180506;1250;59196;-81
2023/11/07 15:47:22;;;;;;;9.10;6.20;;;;;;;12.86;82.18;99863.97;179791;1250;44540;-82
2023/11/07 15:51:26;;;;;;;9.40;5.60;;;;;;;12.81;82.35;99863.23;180116;1251;45855;-82
2023/11/07 15:55:31;;;;;;;10.30;6.30;;;;;;;12.75;83.06;99864.73;179800;1250;46092;-83
2023/11/07 15:59:34;;;;;;;9.50;6.00;;;;;;;12.71;83.51;99861.20;181165;1251;44154;-83
2023/11/07 16:03:37;;;;;;;14.50;12.30;;;;;;;12.67;83.94;99861.86;180829;1251;59624;-81
2023/11/07 16:07:45;;;;;;;15.50;10.50;;;;;;;12.64;84.55;99861.88;179480;1251;46019;-83
2023/11/07 16:11:48;;;;;;;13.60;9.00;;;;;;;12.58;85.17;99861.89;180574;1252;45852;-83
2023/11/07 16:15:52;;;;;;;15.30;9.80;;;;;;;12.53;85.38;99861.66;180512;1250;46069;-82
2023/11/07 16:19:55;;;;;;;23.10;13.60;;;;;;;12.51;85.71;99858.44;180640;1250;44112;-83
2023/11/07 16:23:58;;;;;;;18.60;11.60;;;;;;;12.42;85.96;99853.42;179832;1251;59398;-81
2023/11/07 16:28:02;;;;;;;20.20;12.50;;;;;;;12.38;86.47;99855.96;181205;1251;44653;-83
2023/11/07 16:32:08;;;;;;;;;;;;;;;12.35;87.07;99850.17;181117;1251;45952;-80
2023/11/07 16:36:11;;;;;;;14.20;8.90;;;;;;;12.32;87.29;99855.95;180387;1250;45750;-80
2023/11/07 16:40:16;;;;;;;23.80;11.50;;;;;;;12.29;87.97;99857.17;181207;1253;45977;-82
2023/11/07 16:44:20;;;;;;;24.30;13.80;;;;;;;12.23;88.59;99861.14;181454;1251;57794;-82
2023/11/07 16:48:24;;;;;;;23.40;13.90;;;;;;;12.24;89.14;99859.08;180306;1250;43964;-82
2023/11/07 16:52:28;;;;;;;18.50;12.90;;;;;;;12.23;89.60;99858.05;181416;1250;44265;-83
2023/11/07 16:56:32;;;;;;;30.80;19.30;;;;;;;12.24;89.55;99859.05;180158;1251;46066;-83
2023/11/07 17:00:36;;;;;;;33.20;21.50;;;;;;;12.25;89.79;99861.63;180594;1251;45948;-83
2023/11/07 17:04:41;;;;;;;31.30;19.40;;;;;;;12.26;90.00;99866.17;179791;1251;59298;-82
2023/11/07 17:08:46;;;;;;;24.90;16.30;;;;;;;12.27;90.34;99867.89;179387;1250;45317;-82
2023/11/07 17:12:50;;;;;;;20.30;15.10;;;;;;;12.26;90.73;99862.27;181058;1249;45902;-81
2023/11/07 17:16:53;;;;;;;32.80;18.20;;;;;;;12.28;90.53;99864.06;180399;1251;46069;-81
2023/11/07 17:20:56;;;;;;;21.50;15.60;;;;;;;12.37;90.61;99864.08;180420;1252;46037;-78
2023/11/07 17:24:59;;;;;;;11.30;8.80;;;;;;;12.44;90.42;99867.84;180423;1251;59490;-80
2023/11/07 17:29:03;;;;;;;15.20;6.30;;;;;;;12.44;91.25;99867.86;180801;1251;46009;-81
2023/11/07 17:33:06;;;;;;;10.20;7.80;;;;;;;12.37;91.97;99864.72;179610;1251;45922;-81
2023/11/07 17:37:10;;;;;;;11.10;7.60;;;;;;;12.37;92.75;99869.05;180757;1251;44168;-84
2023/11/07 17:41:14;;;;;;;14.90;7.70;;;;;;;12.37;93.32;99867.55;179692;1249;45890;-82
2023/11/07 17:45:17;;;;;;;13.20;7.80;;;;;;;12.38;93.35;99868.79;180334;1250;59122;-83
2023/11/07 17:49:20;;;;;;;16.40;6.60;;;;;;;12.38;93.25;99862.38;179578;1251;44765;-83
2023/11/07 17:53:23;;;;;;;9.70;5.70;;;;;;;12.35;93.28;99865.48;180026;1251;44125;-83
2023/11/07 17:57:29;;;;;;;16.70;9.50;;;;;;;12.26;93.41;99866.37;181008;1252;43737;-83
2023/11/07 18:01:33;;;;;;;;;;;;;;;12.25;93.90;99864.49;179801;1251;45980;-80
2023/11/07 18:05:36;;;;;;;27.90;20.70;;;;;;;12.15;94.20;99864.31;179941;1251;57766;-83
2023/11/07 18:09:39;;;;;;;36.00;21.90;;;;;;;12.02;95.34;99862.95;179210;1251;45270;-83
2023/11/07 18:13:42;;;;;;;29.60;20.00;;;;;;;11.96;95.13;99863.41;181071;1251;44866;-83
2023/11/07 18:17:46;;;;;;;32.60;20.90;;;;;;;11.96;95.13;99865.02;179768;1250;45845;-84
2023/11/07 18:21:49;;;;;;;23.10;14.40;;;;;;;11.97;95.12;99867.57;180047;1251;46101;-83
2023/11/07 18:25:53;;;;;;;21.70;15.60;;;;;;;11.94;95.28;99870.16;180247;1251;252333;-85
2023/11/07 18:29:56;;;;;;;17.80;12.30;;;;;;;11.96;96.54;99870.60;180778;1250;46092;-84
2023/11/07 18:34:00;;;;;;;16.10;13.50;;;;;;;11.93;97.20;99869.38;179511;1251;45993;-85
2023/11/07 18:38:19;;;;;;;15.60;10.20;;;;;;;11.96;97.79;99869.11;180853;1251;45842;-84
2023/11/07 18:42:26;;;;;;;20.00;12.00;;;;;;;12.01;97.52;99869.60;180289;1251;46409;-83
2023/11/07 18:46:30;;;;;;;14.30;9.80;;;;;;;12.03;97.46;99866.17;179439;1251;59022;-82
2023/11/07 18:50:33;;;;;;;10.00;7.30;;;;;;;12.10;96.77;99867.46;180606;1251;46016;-85
2023/11/07 18:54:36;;;;;;;11.80;6.10;;;;;;;12.12;96.22;99868.36;180600;1251;45980;-84
2023/11/07 18:58:39;;;;;;;7.30;4.80;;;;;;;12.12;95.97;99867.13;180483;1251;45919;-81